createdAt,value
2019-01-03T00:03:59.510Z,99.90
2019-01-03T00:06:42.440Z,99.90
2019-01-03T00:09:42.319Z,99.90
2019-01-03T00:12:42.035Z,99.90
2019-01-03T00:15:42.439Z,99.90
2019-01-03T00:18:25.232Z,99.90
2019-01-03T00:24:19.227Z,99.90
2019-01-03T00:27:01.994Z,99.90
2019-01-03T00:29:45.657Z,99.90
2019-01-03T00:38:55.916Z,99.90
2019-01-03T00:42:02.983Z,99.90
2019-01-03T00:45:10.143Z,99.90
2019-01-03T00:51:25.819Z,99.90
2019-01-03T00:54:32.885Z,99.90
2019-01-03T00:57:39.971Z,99.90
2019-01-03T01:00:47.098Z,99.90
2019-01-03T01:03:54.205Z,99.90
2019-01-03T01:07:01.344Z,99.90
2019-01-03T01:10:08.444Z,99.90
2019-01-03T01:13:15.582Z,99.90
2019-01-03T01:16:22.742Z,99.90
2019-01-03T01:19:07.927Z,99.90
2019-01-03T01:21:50.680Z,99.90
2019-01-03T01:24:50.804Z,99.90
2019-01-03T01:27:50.896Z,99.90
2019-01-03T01:30:50.487Z,99.90
2019-01-03T01:36:44.300Z,99.90
2019-01-03T01:42:51.887Z,99.90
2019-01-03T01:45:52.118Z,99.90
2019-01-03T01:54:24.903Z,99.90
2019-01-03T01:57:07.589Z,99.90
2019-01-03T01:59:49.962Z,99.90
2019-01-03T02:02:34.632Z,99.90
2019-01-03T02:05:19.374Z,99.90
2019-01-03T02:08:05.688Z,99.90
2019-01-03T02:11:06.076Z,99.90
2019-01-03T02:13:50.956Z,99.90
2019-01-03T02:16:51.422Z,99.90
2019-01-03T02:19:37.234Z,99.90
2019-01-03T02:22:18.850Z,99.90
2019-01-03T02:25:04.712Z,99.90
2019-01-03T02:30:59.101Z,99.90
2019-01-03T02:33:59.471Z,99.90
2019-01-03T02:36:59.824Z,99.90
2019-01-03T02:40:00.259Z,99.90
2019-01-03T02:43:00.624Z,99.90
2019-01-03T02:45:42.624Z,99.90
2019-01-03T02:48:25.149Z,99.90
2019-01-03T02:51:25.563Z,99.90
2019-01-03T02:54:25.824Z,99.90
2019-01-03T02:57:26.028Z,99.90
2019-01-03T03:00:11.803Z,99.90
2019-01-03T03:02:57.176Z,99.90
2019-01-03T03:05:56.704Z,99.90
2019-01-03T03:08:56.239Z,99.90
2019-01-03T03:11:42.102Z,99.90
2019-01-03T03:14:27.743Z,99.90
2019-01-03T03:17:10.280Z,99.90
2019-01-03T03:20:10.515Z,99.90
2019-01-03T03:25:46.740Z,99.90
2019-01-03T03:28:46.456Z,99.90
2019-01-03T03:31:46.007Z,99.90
2019-01-03T03:34:28.588Z,99.90
2019-01-03T03:37:10.988Z,99.90
2019-01-03T03:40:11.156Z,99.90
2019-01-03T03:46:05.026Z,99.90
2019-01-03T03:49:05.446Z,99.90
2019-01-03T03:52:05.867Z,99.90
2019-01-03T03:55:06.223Z,99.90
2019-01-03T03:58:06.638Z,99.90
2019-01-03T04:01:06.252Z,99.90
2019-01-03T04:06:59.679Z,99.90
2019-01-03T04:09:59.227Z,99.90
2019-01-03T04:15:38.550Z,99.90
2019-01-03T04:18:38.763Z,99.90
2019-01-03T04:21:20.930Z,99.90
2019-01-03T04:24:03.585Z,99.90
2019-01-03T04:26:46.287Z,99.90
2019-01-03T04:29:46.294Z,99.90
2019-01-03T04:32:46.280Z,99.90
2019-01-03T04:35:31.916Z,99.90
2019-01-03T04:38:13.239Z,99.90
2019-01-03T04:40:55.449Z,99.90
2019-01-03T04:43:55.389Z,99.90
2019-01-03T04:46:41.104Z,99.90
2019-01-03T04:49:41.187Z,99.90
2019-01-03T04:52:26.639Z,99.90
2019-01-03T04:55:09.445Z,99.90
2019-01-03T05:07:04.587Z,99.90
2019-01-03T05:13:12.484Z,99.90
2019-01-03T05:16:12.814Z,99.90
2019-01-03T05:19:13.203Z,99.90
2019-01-03T05:21:58.296Z,99.90
2019-01-03T05:33:52.411Z,99.90
2019-01-03T05:36:59.484Z,99.90
2019-01-03T05:40:06.579Z,99.90
2019-01-03T05:43:13.665Z,99.90
2019-01-03T05:46:20.802Z,99.90
2019-01-03T05:49:27.876Z,99.90
2019-01-03T05:52:34.972Z,99.90
2019-01-03T05:58:50.557Z,99.90
2019-01-03T06:01:57.628Z,99.90
2019-01-03T06:05:04.728Z,99.90
2019-01-03T06:08:11.804Z,99.90
2019-01-03T06:11:18.895Z,99.90
2019-01-03T06:14:25.971Z,99.90
2019-01-03T06:17:11.155Z,99.90
2019-01-03T06:20:11.119Z,99.90
2019-01-03T06:22:56.634Z,99.90
2019-01-03T06:25:56.928Z,99.90
2019-01-03T06:28:57.308Z,99.90
2019-01-03T06:31:42.023Z,99.90
2019-01-03T06:34:41.711Z,99.90
2019-01-03T06:37:41.230Z,99.90
2019-01-03T06:40:24.123Z,99.90
2019-01-03T06:43:24.318Z,99.90
2019-01-03T06:46:24.616Z,99.90
2019-01-03T06:49:24.141Z,99.90
2019-01-03T06:52:08.777Z,99.90
2019-01-03T06:57:33.744Z,99.90
2019-01-03T07:00:34.002Z,99.90
2019-01-03T07:03:19.855Z,99.90
2019-01-03T07:06:04.961Z,99.90
2019-01-03T07:08:47.683Z,99.90
2019-01-03T07:11:47.677Z,99.90
2019-01-03T07:14:33.351Z,99.90
2019-01-03T07:17:33.431Z,99.90
2019-01-03T07:23:10.008Z,99.90
2019-01-03T07:26:09.976Z,99.90
2019-01-03T07:29:09.655Z,99.90
2019-01-03T07:32:09.852Z,99.90
2019-01-03T07:35:10.363Z,99.90
2019-01-03T07:41:17.121Z,99.90
2019-01-03T07:43:59.585Z,99.90
2019-01-03T07:46:42.270Z,99.90
2019-01-03T07:49:24.275Z,99.90
2019-01-03T07:52:24.705Z,99.90
2019-01-03T07:55:24.303Z,99.90
2019-01-03T07:58:06.267Z,99.90
2019-01-03T08:01:05.983Z,99.90
2019-01-03T08:04:06.421Z,99.90
2019-01-03T08:07:05.939Z,99.90
2019-01-03T08:10:06.384Z,99.90
2019-01-03T08:16:13.399Z,99.90
2019-01-03T08:18:58.936Z,99.90
2019-01-03T08:21:40.851Z,99.90
2019-01-03T08:24:40.403Z,99.90
2019-01-03T08:30:16.444Z,99.90
2019-01-03T08:33:16.852Z,99.90
2019-01-03T08:36:16.452Z,99.90
2019-01-03T08:38:59.359Z,99.90
2019-01-03T08:41:59.661Z,99.90
2019-01-03T08:44:59.208Z,99.90
2019-01-03T08:47:59.710Z,99.90
2019-01-03T08:50:59.256Z,99.90
2019-01-03T08:53:41.224Z,99.90
2019-01-03T08:59:48.869Z,99.90
2019-01-03T09:02:48.977Z,99.90
2019-01-03T09:05:31.579Z,99.90
2019-01-03T09:08:14.086Z,99.90
2019-01-03T09:11:14.111Z,99.90
2019-01-03T09:14:13.588Z,99.90
2019-01-03T09:16:56.407Z,99.90
2019-01-03T09:19:56.356Z,99.90
2019-01-03T09:22:39.119Z,99.90
2019-01-03T09:25:24.607Z,99.90
2019-01-03T09:28:25.054Z,99.90
2019-01-03T09:31:24.695Z,99.90
2019-01-03T09:34:24.179Z,99.90
2019-01-03T09:37:06.875Z,99.90
2019-01-03T09:39:52.507Z,99.90
2019-01-03T09:42:52.659Z,99.90
2019-01-03T09:45:43.818Z,99.90
2019-01-03T09:48:15.635Z,99.90
2019-01-03T09:50:56.261Z,99.90
2019-01-03T09:53:36.710Z,99.90
2019-01-03T09:56:17.171Z,99.90
2019-01-03T09:58:57.740Z,99.90
2019-01-03T10:01:38.505Z,99.90
2019-01-03T10:04:19.263Z,99.90
2019-01-03T10:07:00.067Z,99.90
2019-01-03T10:09:40.931Z,99.90
2019-01-03T10:12:21.948Z,99.90
2019-01-03T10:15:02.864Z,99.90
2019-01-03T10:17:43.700Z,99.90
2019-01-03T10:20:24.280Z,99.90
2019-01-03T10:23:04.843Z,99.90
2019-01-03T10:25:45.680Z,99.90
2019-01-03T10:28:26.579Z,99.90
2019-01-03T10:31:07.131Z,99.90
2019-01-03T10:33:47.823Z,99.90
2019-01-03T10:36:28.552Z,99.90
2019-01-03T10:39:09.183Z,99.90
2019-01-03T10:41:49.802Z,99.90
2019-01-03T10:44:30.360Z,99.90
2019-01-03T10:47:10.664Z,99.90
2019-01-03T10:49:51.882Z,99.90
2019-01-03T10:52:32.620Z,99.90
2019-01-03T10:55:13.491Z,99.90
2019-01-03T10:57:53.944Z,99.90
2019-01-03T11:00:34.532Z,99.90
2019-01-03T11:03:15.139Z,99.90
2019-01-03T11:05:56.138Z,99.90
2019-01-03T11:08:36.924Z,99.90
2019-01-03T11:11:17.635Z,99.90
2019-01-03T11:13:58.599Z,99.90
2019-01-03T11:16:39.692Z,99.90
2019-01-03T11:19:20.449Z,99.90
2019-01-03T11:22:01.271Z,99.90
2019-01-03T11:24:41.700Z,99.90
2019-01-03T11:27:22.311Z,99.90
2019-01-03T11:30:02.673Z,99.90
2019-01-03T11:32:43.215Z,99.90
2019-01-03T11:35:23.764Z,99.90
2019-01-03T11:38:04.362Z,99.90
2019-01-03T11:40:44.812Z,99.40
2019-01-03T11:43:25.532Z,99.60
2019-01-03T11:46:05.846Z,99.90
2019-01-03T11:48:46.879Z,99.90
2019-01-03T11:51:27.701Z,99.60
2019-01-03T11:54:08.796Z,98.70
2019-01-03T11:56:49.340Z,99.60
2019-01-03T11:59:30.061Z,99.90
2019-01-03T12:02:10.759Z,99.80
2019-01-03T12:04:51.596Z,99.20
2019-01-03T12:07:32.303Z,99.70
2019-01-03T12:10:12.940Z,99.10
2019-01-03T12:12:53.394Z,99.90
2019-01-03T12:15:34.053Z,99.60
2019-01-03T12:18:14.595Z,98.90
2019-01-03T12:20:55.256Z,99.50
2019-01-03T12:23:35.994Z,99.80
2019-01-03T12:26:16.551Z,99.50
2019-01-03T12:28:57.082Z,99.50
2019-01-03T12:31:37.763Z,99.10
2019-01-03T12:34:18.558Z,98.70
2019-01-03T12:36:59.142Z,99.30
2019-01-03T12:39:39.850Z,98.80
2019-01-03T12:42:20.588Z,98.60
2019-01-03T12:45:01.127Z,98.30
2019-01-03T12:47:41.821Z,98.50
2019-01-03T12:50:22.619Z,98.50
2019-01-03T12:53:03.435Z,97.80
2019-01-03T12:55:44.047Z,97.80
2019-01-03T12:58:24.484Z,97.40
2019-01-03T13:01:05.085Z,97.60
2019-01-03T13:03:45.681Z,97.50
2019-01-03T13:06:26.191Z,96.90
2019-01-03T13:09:08.872Z,98.40
2019-01-03T13:11:49.717Z,97.00
2019-01-03T13:14:30.619Z,97.40
2019-01-03T13:17:11.435Z,96.40
2019-01-03T13:19:52.510Z,96.30
2019-01-03T13:22:33.211Z,96.80
2019-01-03T13:25:14.264Z,96.30
2019-01-03T13:27:55.002Z,96.40
2019-01-03T13:30:35.542Z,96.50
2019-01-03T13:33:16.291Z,96.80
2019-01-03T13:35:57.133Z,96.80
2019-01-03T13:38:37.563Z,96.20
2019-01-03T13:41:18.504Z,96.40
2019-01-03T13:43:59.352Z,96.80
2019-01-03T13:46:40.008Z,97.20
2019-01-03T13:49:20.428Z,97.00
2019-01-03T13:52:01.323Z,97.40
2019-01-03T13:54:41.971Z,97.20
2019-01-03T13:57:22.523Z,97.60
2019-01-03T14:00:03.199Z,97.30
2019-01-03T14:02:43.847Z,97.10
2019-01-03T14:05:24.425Z,97.60
2019-01-03T14:08:05.475Z,97.10
2019-01-03T14:10:46.634Z,97.40
2019-01-03T14:13:27.755Z,97.90
2019-01-03T14:16:08.396Z,97.00
2019-01-03T14:18:49.087Z,97.20
2019-01-03T14:21:30.126Z,97.70
2019-01-03T14:24:11.040Z,97.40
2019-01-03T14:26:51.611Z,97.60
2019-01-03T14:29:32.513Z,98.10
2019-01-03T14:32:13.372Z,99.00
2019-01-03T14:34:53.936Z,98.80
2019-01-03T14:37:32.858Z,99.10
2019-01-03T14:40:20.774Z,99.00
2019-01-03T14:43:08.703Z,98.60
2019-01-03T14:45:56.611Z,99.40
2019-01-03T14:48:44.479Z,99.10
2019-01-03T14:51:32.386Z,99.10
2019-01-03T14:54:20.275Z,99.10
2019-01-03T14:57:08.243Z,99.00
2019-01-03T14:59:56.128Z,99.50
2019-01-03T15:02:44.023Z,99.90
2019-01-03T15:05:31.905Z,99.90
2019-01-03T15:08:19.811Z,99.90
2019-01-03T15:11:07.688Z,99.90
2019-01-03T15:13:55.601Z,99.90
2019-01-03T15:17:16.907Z,99.90
2019-01-03T15:19:44.932Z,99.90
2019-01-03T15:22:25.680Z,99.90
2019-01-03T15:25:06.640Z,99.90
2019-01-03T15:27:47.875Z,99.90
2019-01-03T15:30:30.331Z,99.90
2019-01-03T15:33:10.517Z,99.90
2019-01-03T15:35:51.570Z,99.90
2019-01-03T15:38:32.629Z,99.90
2019-01-03T15:41:13.360Z,99.90
2019-01-03T15:43:54.179Z,99.90
2019-01-03T15:46:35.029Z,99.90
2019-01-03T15:49:15.784Z,99.90
2019-01-03T15:51:56.527Z,99.90
2019-01-03T15:54:37.302Z,99.90
2019-01-03T15:57:18.011Z,99.90
2019-01-03T15:59:58.771Z,99.90
2019-01-03T16:02:39.608Z,99.90
2019-01-03T16:05:20.062Z,99.90
2019-01-03T16:08:00.701Z,99.90
2019-01-03T16:10:41.314Z,99.90
2019-01-03T16:13:22.159Z,99.90
2019-01-03T16:16:02.875Z,99.90
2019-01-03T16:18:43.643Z,99.90
2019-01-03T16:21:24.312Z,99.90
2019-01-03T16:24:05.088Z,99.90
2019-01-03T16:26:45.695Z,99.90
2019-01-03T16:29:26.014Z,99.90
2019-01-03T16:32:06.312Z,99.90
2019-01-03T16:34:46.801Z,99.90
2019-01-03T16:37:27.202Z,99.90
2019-01-03T16:40:07.690Z,99.90
2019-01-03T16:42:48.279Z,99.90
2019-01-03T16:45:28.919Z,99.90
2019-01-03T16:48:09.642Z,99.90
2019-01-03T16:50:49.988Z,99.90
2019-01-03T16:53:31.299Z,99.90
2019-01-03T16:56:11.858Z,99.90
2019-01-03T16:58:52.702Z,99.90
2019-01-03T17:01:33.094Z,99.90
2019-01-03T17:04:15.664Z,99.90
2019-01-03T17:06:56.747Z,99.90
2019-01-03T17:09:37.610Z,99.90
2019-01-03T17:12:18.764Z,99.90
2019-01-03T17:14:59.549Z,99.90
2019-01-03T17:17:40.192Z,99.90
2019-01-03T17:20:20.960Z,99.90
2019-01-03T17:23:02.082Z,99.90
2019-01-03T17:25:43.247Z,99.90
2019-01-03T17:28:24.159Z,99.90
2019-01-03T17:31:04.669Z,99.90
2019-01-03T17:33:45.096Z,99.90
2019-01-03T17:36:25.899Z,99.90
2019-01-03T17:39:06.896Z,99.90
2019-01-03T17:41:47.232Z,99.90
2019-01-03T17:44:28.127Z,99.90
2019-01-03T17:47:08.916Z,99.90
2019-01-03T17:49:49.863Z,99.90
2019-01-03T17:52:30.508Z,99.90
2019-01-03T17:55:10.979Z,99.90
2019-01-03T17:57:51.473Z,99.90
2019-01-03T18:00:32.444Z,99.90
2019-01-03T18:03:13.253Z,99.90
2019-01-03T18:05:53.899Z,99.90
2019-01-03T18:08:34.424Z,99.90
2019-01-03T18:11:14.974Z,99.90
2019-01-03T18:13:55.405Z,99.90
2019-01-03T18:16:36.096Z,99.90
2019-01-03T18:19:16.670Z,99.90
2019-01-03T18:21:57.095Z,99.90
2019-01-03T18:24:37.979Z,99.90
2019-01-03T18:27:19.039Z,99.90
2019-01-03T18:30:00.168Z,99.90
2019-01-03T18:32:40.986Z,99.90
2019-01-03T18:35:21.543Z,99.90
2019-01-03T18:38:02.048Z,99.90
2019-01-03T18:40:42.500Z,99.90
2019-01-03T18:43:22.919Z,99.90
2019-01-03T18:46:03.661Z,99.90
2019-01-03T18:48:44.198Z,99.90
2019-01-03T18:51:25.001Z,99.90
2019-01-03T18:54:05.821Z,99.90
2019-01-03T18:56:46.551Z,99.90
2019-01-03T18:59:27.140Z,99.90
2019-01-03T19:02:07.755Z,99.90
2019-01-03T19:04:48.599Z,99.90
2019-01-03T19:07:29.016Z,99.90
2019-01-03T19:10:09.483Z,99.90
2019-01-03T19:12:50.211Z,99.90
2019-01-03T19:15:30.747Z,99.90
2019-01-03T19:18:11.474Z,99.90
2019-01-03T19:20:52.282Z,99.90
2019-01-03T19:23:32.591Z,99.90
2019-01-03T19:26:13.251Z,99.90
2019-01-03T19:28:53.849Z,99.90
2019-01-03T19:31:34.719Z,99.90
2019-01-03T19:34:15.296Z,99.90
2019-01-03T19:36:55.913Z,99.90
2019-01-03T19:39:36.465Z,99.90
2019-01-03T19:42:16.962Z,99.90
2019-01-03T19:44:57.661Z,99.90
2019-01-03T19:47:38.255Z,99.90
2019-01-03T19:50:19.231Z,99.90
2019-01-03T19:53:00.052Z,99.90
2019-01-03T19:55:40.725Z,99.90
2019-01-03T19:58:21.513Z,99.90
2019-01-03T20:01:02.762Z,99.90
2019-01-03T20:03:43.706Z,99.90
2019-01-03T20:06:24.596Z,99.90
2019-01-03T20:09:05.326Z,99.90
2019-01-03T20:11:45.771Z,99.90
2019-01-03T20:14:26.322Z,99.90
2019-01-03T20:17:07.209Z,99.90
2019-01-03T20:19:47.959Z,99.90
2019-01-03T20:22:28.992Z,99.90
2019-01-03T20:25:09.667Z,99.90
2019-01-03T20:27:50.311Z,99.90
2019-01-03T20:30:31.303Z,99.90
2019-01-03T20:33:11.755Z,99.90
2019-01-03T20:35:53.667Z,99.90
2019-01-03T20:38:34.289Z,99.90
2019-01-03T20:41:15.179Z,99.90
2019-01-03T20:43:55.951Z,99.90
2019-01-03T20:46:37.079Z,99.90
2019-01-03T20:49:17.508Z,99.90
2019-01-03T20:51:57.821Z,99.90
2019-01-03T20:54:38.660Z,99.90
2019-01-03T20:57:19.307Z,99.90
2019-01-03T20:59:59.679Z,99.90
2019-01-03T21:02:40.313Z,99.90
2019-01-03T21:05:20.960Z,99.90
2019-01-03T21:08:01.463Z,99.90
2019-01-03T21:10:41.975Z,99.90
2019-01-03T21:13:22.963Z,99.90
2019-01-03T21:16:03.940Z,99.90
2019-01-03T21:18:46.258Z,99.90
2019-01-03T21:21:27.013Z,99.90
2019-01-03T21:24:07.659Z,99.90
2019-01-03T21:26:48.131Z,99.90
2019-01-03T21:29:28.983Z,99.90
2019-01-03T21:32:09.621Z,99.90
2019-01-03T21:34:50.499Z,99.90
2019-01-03T21:37:31.147Z,99.90
2019-01-03T21:40:11.869Z,99.90
2019-01-03T21:42:52.648Z,99.90
2019-01-03T21:45:33.613Z,99.90
2019-01-03T21:48:14.260Z,99.90
2019-01-03T21:50:55.222Z,99.90
2019-01-03T21:53:35.791Z,99.90
2019-01-03T21:56:16.525Z,99.90
2019-01-03T21:58:57.102Z,99.90
2019-01-03T22:01:37.735Z,99.90
2019-01-03T22:04:18.311Z,99.90
2019-01-03T22:06:58.764Z,99.90
2019-01-03T22:09:39.234Z,99.90
2019-01-03T22:12:20.144Z,99.90
2019-01-03T22:15:00.800Z,99.90
2019-01-03T22:17:41.738Z,99.90
2019-01-03T22:20:22.138Z,99.90
2019-01-03T22:23:02.600Z,99.90
2019-01-03T22:25:43.382Z,99.90
2019-01-03T22:28:24.171Z,99.90
2019-01-03T22:31:05.299Z,99.90
2019-01-03T22:33:46.231Z,99.90
2019-01-03T22:36:26.798Z,99.90
2019-01-03T22:39:07.216Z,99.90
2019-01-03T22:41:47.705Z,99.90
2019-01-03T22:44:28.331Z,99.90
2019-01-03T22:47:08.986Z,99.90
2019-01-03T22:49:49.483Z,99.90
2019-01-03T22:52:30.018Z,99.90
2019-01-03T22:55:10.908Z,99.90
2019-01-03T22:57:51.261Z,99.90
2019-01-03T23:00:32.500Z,99.90
2019-01-03T23:03:12.816Z,99.90
2019-01-03T23:05:53.547Z,99.90
2019-01-03T23:11:16.263Z,99.90
2019-01-03T23:13:56.747Z,99.90
2019-01-03T23:16:37.126Z,99.90
2019-01-03T23:19:17.759Z,99.90
2019-01-03T23:21:58.331Z,99.90
2019-01-03T23:24:39.091Z,99.90
2019-01-03T23:27:20.001Z,99.90
2019-01-03T23:30:00.504Z,99.90
2019-01-03T23:32:40.913Z,99.90
2019-01-03T23:35:21.426Z,99.90
2019-01-03T23:38:02.019Z,99.90
2019-01-03T23:40:42.652Z,99.90
2019-01-03T23:43:23.129Z,99.90
2019-01-03T23:46:03.915Z,99.90
2019-01-03T23:48:44.983Z,99.90
2019-01-03T23:51:26.132Z,99.90
2019-01-03T23:54:06.577Z,99.90
2019-01-03T23:56:47.087Z,99.90
2019-01-03T23:59:27.669Z,99.90
